sensor_id;sensor_type;location;lat;lon;timestamp;P1;durP1;ratioP1;P2;durP2;ratioP2
40983;SDS011;26714;51.332;12.406;2023-08-17T00:02:16;8.13;;;5.03;;
40983;SDS011;26714;51.332;12.406;2023-08-17T00:04:41;9.13;;;5.25;;
40983;SDS011;26714;51.332;12.406;2023-08-17T00:07:07;8.13;;;4.90;;
40983;SDS011;26714;51.332;12.406;2023-08-17T00:09:32;7.22;;;5.35;;
40983;SDS011;26714;51.332;12.406;2023-08-17T00:11:58;10.82;;;5.47;;
40983;SDS011;26714;51.332;12.406;2023-08-17T00:14:24;7.78;;;4.97;;
40983;SDS011;26714;51.332;12.406;2023-08-17T00:16:50;7.90;;;5.47;;
40983;SDS011;26714;51.332;12.406;2023-08-17T00:19:16;6.65;;;4.90;;
40983;SDS011;26714;51.332;12.406;2023-08-17T00:21:42;8.15;;;5.22;;
40983;SDS011;26714;51.332;12.406;2023-08-17T00:24:07;9.93;;;5.28;;
40983;SDS011;26714;51.332;12.406;2023-08-17T00:26:33;10.30;;;5.50;;
40983;SDS011;26714;51.332;12.406;2023-08-17T00:28:58;9.80;;;4.97;;
40983;SDS011;26714;51.332;12.406;2023-08-17T00:31:24;11.68;;;5.32;;
40983;SDS011;26714;51.332;12.406;2023-08-17T00:33:50;8.27;;;4.63;;
40983;SDS011;26714;51.332;12.406;2023-08-17T00:36:15;8.57;;;5.78;;
40983;SDS011;26714;51.332;12.406;2023-08-17T00:38:41;8.98;;;4.68;;
40983;SDS011;26714;51.332;12.406;2023-08-17T00:41:06;7.03;;;4.80;;
40983;SDS011;26714;51.332;12.406;2023-08-17T00:43:32;7.82;;;5.03;;
40983;SDS011;26714;51.332;12.406;2023-08-17T00:45:57;7.43;;;4.53;;
40983;SDS011;26714;51.332;12.406;2023-08-17T00:48:23;5.82;;;3.97;;
40983;SDS011;26714;51.332;12.406;2023-08-17T00:50:49;7.78;;;5.00;;
40983;SDS011;26714;51.332;12.406;2023-08-17T00:53:15;10.98;;;4.90;;
40983;SDS011;26714;51.332;12.406;2023-08-17T00:55:42;6.82;;;4.45;;
40983;SDS011;26714;51.332;12.406;2023-08-17T00:58:07;7.32;;;4.53;;
40983;SDS011;26714;51.332;12.406;2023-08-17T01:00:33;6.13;;;4.38;;
40983;SDS011;26714;51.332;12.406;2023-08-17T01:02:58;8.77;;;4.50;;
40983;SDS011;26714;51.332;12.406;2023-08-17T01:05:24;7.13;;;4.50;;
40983;SDS011;26714;51.332;12.406;2023-08-17T01:07:50;8.25;;;4.85;;
40983;SDS011;26714;51.332;12.406;2023-08-17T01:10:15;9.18;;;4.78;;
40983;SDS011;26714;51.332;12.406;2023-08-17T01:15:22;7.18;;;4.55;;
40983;SDS011;26714;51.332;12.406;2023-08-17T01:20:21;7.78;;;4.32;;
40983;SDS011;26714;51.332;12.406;2023-08-17T01:22:49;6.70;;;4.07;;
40983;SDS011;26714;51.332;12.406;2023-08-17T01:25:15;6.80;;;4.43;;
40983;SDS011;26714;51.332;12.406;2023-08-17T01:27:43;7.30;;;4.35;;
40983;SDS011;26714;51.332;12.406;2023-08-17T01:30:10;8.10;;;4.78;;
40983;SDS011;26714;51.332;12.406;2023-08-17T01:35:16;6.45;;;4.25;;
40983;SDS011;26714;51.332;12.406;2023-08-17T01:37:42;6.65;;;4.47;;
40983;SDS011;26714;51.332;12.406;2023-08-17T01:40:09;6.43;;;4.47;;
40983;SDS011;26714;51.332;12.406;2023-08-17T01:42:35;8.50;;;4.50;;
40983;SDS011;26714;51.332;12.406;2023-08-17T01:45:00;7.70;;;4.72;;
40983;SDS011;26714;51.332;12.406;2023-08-17T01:47:26;7.00;;;3.83;;
40983;SDS011;26714;51.332;12.406;2023-08-17T01:49:51;7.60;;;4.45;;
40983;SDS011;26714;51.332;12.406;2023-08-17T01:52:17;7.75;;;4.85;;
40983;SDS011;26714;51.332;12.406;2023-08-17T01:54:42;7.32;;;4.40;;
40983;SDS011;26714;51.332;12.406;2023-08-17T01:57:08;7.60;;;4.13;;
40983;SDS011;26714;51.332;12.406;2023-08-17T01:59:33;7.43;;;4.18;;
40983;SDS011;26714;51.332;12.406;2023-08-17T02:01:59;5.72;;;3.78;;
40983;SDS011;26714;51.332;12.406;2023-08-17T02:04:25;9.10;;;4.28;;
40983;SDS011;26714;51.332;12.406;2023-08-17T02:06:50;6.38;;;4.10;;
40983;SDS011;26714;51.332;12.406;2023-08-17T02:09:16;10.68;;;4.88;;
40983;SDS011;26714;51.332;12.406;2023-08-17T02:11:41;6.60;;;4.45;;
40983;SDS011;26714;51.332;12.406;2023-08-17T02:14:07;9.40;;;4.93;;
40983;SDS011;26714;51.332;12.406;2023-08-17T02:16:32;10.13;;;4.97;;
40983;SDS011;26714;51.332;12.406;2023-08-17T02:18:58;8.82;;;4.63;;
40983;SDS011;26714;51.332;12.406;2023-08-17T02:21:24;7.38;;;4.80;;
40983;SDS011;26714;51.332;12.406;2023-08-17T02:23:49;7.85;;;5.18;;
40983;SDS011;26714;51.332;12.406;2023-08-17T02:26:15;6.25;;;4.40;;
40983;SDS011;26714;51.332;12.406;2023-08-17T02:28:40;5.22;;;3.33;;
40983;SDS011;26714;51.332;12.406;2023-08-17T02:31:06;6.32;;;3.00;;
40983;SDS011;26714;51.332;12.406;2023-08-17T02:33:31;6.65;;;1.88;;
40983;SDS011;26714;51.332;12.406;2023-08-17T02:35:58;2.20;;;1.02;;
40983;SDS011;26714;51.332;12.406;2023-08-17T02:38:24;2.53;;;0.95;;
40983;SDS011;26714;51.332;12.406;2023-08-17T02:40:50;1.45;;;0.90;;
40983;SDS011;26714;51.332;12.406;2023-08-17T02:43:15;2.13;;;0.95;;
40983;SDS011;26714;51.332;12.406;2023-08-17T02:45:44;1.85;;;0.82;;
40983;SDS011;26714;51.332;12.406;2023-08-17T02:48:09;2.30;;;0.80;;
40983;SDS011;26714;51.332;12.406;2023-08-17T02:50:35;1.67;;;0.82;;
40983;SDS011;26714;51.332;12.406;2023-08-17T02:53:00;2.03;;;0.85;;
40983;SDS011;26714;51.332;12.406;2023-08-17T02:55:27;1.17;;;0.63;;
40983;SDS011;26714;51.332;12.406;2023-08-17T02:57:53;2.95;;;0.95;;
40983;SDS011;26714;51.332;12.406;2023-08-17T03:00:18;1.83;;;0.77;;
40983;SDS011;26714;51.332;12.406;2023-08-17T03:02:44;1.23;;;0.70;;
40983;SDS011;26714;51.332;12.406;2023-08-17T03:05:10;2.20;;;0.90;;
40983;SDS011;26714;51.332;12.406;2023-08-17T03:07:35;2.90;;;0.90;;
40983;SDS011;26714;51.332;12.406;2023-08-17T03:10:01;2.15;;;0.90;;
40983;SDS011;26714;51.332;12.406;2023-08-17T03:12:26;4.15;;;0.70;;
40983;SDS011;26714;51.332;12.406;2023-08-17T03:14:52;13.40;;;1.10;;
40983;SDS011;26714;51.332;12.406;2023-08-17T03:17:17;5.65;;;1.08;;
40983;SDS011;26714;51.332;12.406;2023-08-17T03:19:43;4.10;;;1.23;;
40983;SDS011;26714;51.332;12.406;2023-08-17T03:22:08;2.75;;;0.95;;
40983;SDS011;26714;51.332;12.406;2023-08-17T03:24:34;2.60;;;1.20;;
40983;SDS011;26714;51.332;12.406;2023-08-17T03:26:59;6.60;;;1.25;;
40983;SDS011;26714;51.332;12.406;2023-08-17T03:29:25;5.72;;;1.20;;
40983;SDS011;26714;51.332;12.406;2023-08-17T03:31:52;3.72;;;1.08;;
40983;SDS011;26714;51.332;12.406;2023-08-17T03:34:17;7.18;;;1.35;;
40983;SDS011;26714;51.332;12.406;2023-08-17T03:36:43;3.17;;;1.30;;
40983;SDS011;26714;51.332;12.406;2023-08-17T03:39:08;9.05;;;1.20;;
40983;SDS011;26714;51.332;12.406;2023-08-17T03:41:34;4.93;;;1.30;;
40983;SDS011;26714;51.332;12.406;2023-08-17T03:44:02;2.78;;;1.13;;
40983;SDS011;26714;51.332;12.406;2023-08-17T03:46:29;6.70;;;1.55;;
40983;SDS011;26714;51.332;12.406;2023-08-17T03:48:55;4.93;;;1.40;;
40983;SDS011;26714;51.332;12.406;2023-08-17T03:51:20;5.25;;;1.90;;
40983;SDS011;26714;51.332;12.406;2023-08-17T03:53:46;6.38;;;1.35;;
40983;SDS011;26714;51.332;12.406;2023-08-17T03:56:11;2.42;;;1.17;;
40983;SDS011;26714;51.332;12.406;2023-08-17T03:58:37;6.97;;;1.48;;
40983;SDS011;26714;51.332;12.406;2023-08-17T04:01:03;4.53;;;1.50;;
40983;SDS011;26714;51.332;12.406;2023-08-17T04:03:32;5.00;;;1.40;;
40983;SDS011;26714;51.332;12.406;2023-08-17T04:05:58;4.82;;;1.42;;
40983;SDS011;26714;51.332;12.406;2023-08-17T04:08:29;7.35;;;1.77;;
40983;SDS011;26714;51.332;12.406;2023-08-17T04:10:54;4.65;;;1.33;;
40983;SDS011;26714;51.332;12.406;2023-08-17T04:13:21;3.03;;;1.40;;
40983;SDS011;26714;51.332;12.406;2023-08-17T04:15:47;5.70;;;1.75;;
40983;SDS011;26714;51.332;12.406;2023-08-17T04:18:12;5.97;;;1.50;;
40983;SDS011;26714;51.332;12.406;2023-08-17T04:20:38;4.57;;;1.30;;
40983;SDS011;26714;51.332;12.406;2023-08-17T04:23:03;8.82;;;2.25;;
40983;SDS011;26714;51.332;12.406;2023-08-17T04:25:29;8.15;;;3.15;;
40983;SDS011;26714;51.332;12.406;2023-08-17T04:27:54;4.43;;;1.80;;
40983;SDS011;26714;51.332;12.406;2023-08-17T04:30:20;7.13;;;3.40;;
40983;SDS011;26714;51.332;12.406;2023-08-17T04:32:55;8.45;;;4.18;;
40983;SDS011;26714;51.332;12.406;2023-08-17T04:35:20;5.10;;;2.00;;
40983;SDS011;26714;51.332;12.406;2023-08-17T04:37:46;6.22;;;1.90;;
40983;SDS011;26714;51.332;12.406;2023-08-17T04:40:13;5.75;;;2.70;;
40983;SDS011;26714;51.332;12.406;2023-08-17T04:42:39;7.15;;;2.17;;
40983;SDS011;26714;51.332;12.406;2023-08-17T04:45:07;5.25;;;1.80;;
40983;SDS011;26714;51.332;12.406;2023-08-17T04:47:37;9.68;;;1.83;;
40983;SDS011;26714;51.332;12.406;2023-08-17T04:50:03;5.70;;;1.90;;
40983;SDS011;26714;51.332;12.406;2023-08-17T04:52:28;4.57;;;1.60;;
40983;SDS011;26714;51.332;12.406;2023-08-17T04:54:54;11.55;;;5.50;;
40983;SDS011;26714;51.332;12.406;2023-08-17T04:57:19;4.47;;;1.60;;
40983;SDS011;26714;51.332;12.406;2023-08-17T04:59:45;3.38;;;1.50;;
40983;SDS011;26714;51.332;12.406;2023-08-17T05:02:11;6.20;;;1.98;;
40983;SDS011;26714;51.332;12.406;2023-08-17T05:04:38;5.97;;;1.67;;
40983;SDS011;26714;51.332;12.406;2023-08-17T05:07:05;5.07;;;1.50;;
40983;SDS011;26714;51.332;12.406;2023-08-17T05:09:31;7.38;;;2.00;;
40983;SDS011;26714;51.332;12.406;2023-08-17T05:11:57;6.60;;;2.25;;
40983;SDS011;26714;51.332;12.406;2023-08-17T05:14:26;4.75;;;1.77;;
40983;SDS011;26714;51.332;12.406;2023-08-17T05:16:52;4.53;;;1.60;;
40983;SDS011;26714;51.332;12.406;2023-08-17T05:19:17;3.25;;;1.60;;
40983;SDS011;26714;51.332;12.406;2023-08-17T05:21:43;3.28;;;1.35;;
40983;SDS011;26714;51.332;12.406;2023-08-17T05:24:09;4.70;;;1.70;;
40983;SDS011;26714;51.332;12.406;2023-08-17T05:26:34;3.15;;;1.38;;
40983;SDS011;26714;51.332;12.406;2023-08-17T05:29:00;3.25;;;1.38;;
40983;SDS011;26714;51.332;12.406;2023-08-17T05:31:26;4.28;;;1.33;;
40983;SDS011;26714;51.332;12.406;2023-08-17T05:33:52;6.50;;;2.17;;
40983;SDS011;26714;51.332;12.406;2023-08-17T05:36:19;3.83;;;1.70;;
40983;SDS011;26714;51.332;12.406;2023-08-17T05:38:46;6.47;;;1.50;;
40983;SDS011;26714;51.332;12.406;2023-08-17T05:41:12;5.30;;;1.35;;
40983;SDS011;26714;51.332;12.406;2023-08-17T05:43:38;4.55;;;1.30;;
40983;SDS011;26714;51.332;12.406;2023-08-17T05:46:03;4.32;;;1.40;;
40983;SDS011;26714;51.332;12.406;2023-08-17T05:48:29;3.33;;;1.35;;
40983;SDS011;26714;51.332;12.406;2023-08-17T05:50:55;4.80;;;1.45;;
40983;SDS011;26714;51.332;12.406;2023-08-17T05:53:21;3.95;;;1.50;;
40983;SDS011;26714;51.332;12.406;2023-08-17T05:55:46;3.85;;;1.45;;
40983;SDS011;26714;51.332;12.406;2023-08-17T05:58:11;7.28;;;1.45;;
40983;SDS011;26714;51.332;12.406;2023-08-17T06:00:37;6.35;;;1.33;;
40983;SDS011;26714;51.332;12.406;2023-08-17T06:03:03;4.07;;;1.20;;
40983;SDS011;26714;51.332;12.406;2023-08-17T06:05:29;6.22;;;1.42;;
40983;SDS011;26714;51.332;12.406;2023-08-17T06:07:54;3.50;;;1.38;;
40983;SDS011;26714;51.332;12.406;2023-08-17T06:10:20;5.35;;;1.60;;
40983;SDS011;26714;51.332;12.406;2023-08-17T06:12:51;3.15;;;1.40;;
40983;SDS011;26714;51.332;12.406;2023-08-17T06:15:16;5.68;;;1.60;;
40983;SDS011;26714;51.332;12.406;2023-08-17T06:17:42;3.45;;;1.40;;
40983;SDS011;26714;51.332;12.406;2023-08-17T06:20:08;2.60;;;1.40;;
40983;SDS011;26714;51.332;12.406;2023-08-17T06:22:35;5.63;;;1.60;;
40983;SDS011;26714;51.332;12.406;2023-08-17T06:25:01;5.50;;;1.50;;
40983;SDS011;26714;51.332;12.406;2023-08-17T06:27:26;5.72;;;1.90;;
40983;SDS011;26714;51.332;12.406;2023-08-17T06:29:52;6.05;;;2.63;;
40983;SDS011;26714;51.332;12.406;2023-08-17T06:32:17;6.50;;;2.70;;
40983;SDS011;26714;51.332;12.406;2023-08-17T06:34:43;3.67;;;1.90;;
40983;SDS011;26714;51.332;12.406;2023-08-17T06:37:09;4.28;;;2.10;;
40983;SDS011;26714;51.332;12.406;2023-08-17T06:39:34;5.53;;;2.63;;
40983;SDS011;26714;51.332;12.406;2023-08-17T06:42:00;5.93;;;2.85;;
40983;SDS011;26714;51.332;12.406;2023-08-17T06:44:26;4.90;;;2.80;;
40983;SDS011;26714;51.332;12.406;2023-08-17T06:46:51;6.30;;;2.58;;
40983;SDS011;26714;51.332;12.406;2023-08-17T06:49:17;4.90;;;3.10;;
40983;SDS011;26714;51.332;12.406;2023-08-17T06:51:42;5.43;;;2.90;;
40983;SDS011;26714;51.332;12.406;2023-08-17T06:54:08;7.30;;;3.83;;
40983;SDS011;26714;51.332;12.406;2023-08-17T06:56:34;5.00;;;3.25;;
40983;SDS011;26714;51.332;12.406;2023-08-17T06:59:00;5.05;;;3.17;;
40983;SDS011;26714;51.332;12.406;2023-08-17T07:01:25;5.47;;;3.28;;
40983;SDS011;26714;51.332;12.406;2023-08-17T07:03:51;6.97;;;2.95;;
40983;SDS011;26714;51.332;12.406;2023-08-17T07:06:17;5.78;;;3.63;;
40983;SDS011;26714;51.332;12.406;2023-08-17T07:08:43;5.72;;;3.33;;
40983;SDS011;26714;51.332;12.406;2023-08-17T07:11:08;7.00;;;4.22;;
40983;SDS011;26714;51.332;12.406;2023-08-17T07:13:34;9.55;;;3.42;;
40983;SDS011;26714;51.332;12.406;2023-08-17T07:16:00;5.53;;;3.22;;
40983;SDS011;26714;51.332;12.406;2023-08-17T07:18:25;6.13;;;3.55;;
40983;SDS011;26714;51.332;12.406;2023-08-17T07:20:51;6.38;;;3.25;;
40983;SDS011;26714;51.332;12.406;2023-08-17T07:23:16;5.72;;;3.35;;
40983;SDS011;26714;51.332;12.406;2023-08-17T07:25:42;6.88;;;3.60;;
40983;SDS011;26714;51.332;12.406;2023-08-17T07:28:07;9.18;;;5.05;;
40983;SDS011;26714;51.332;12.406;2023-08-17T07:30:33;10.30;;;4.50;;
40983;SDS011;26714;51.332;12.406;2023-08-17T07:32:59;6.75;;;4.07;;
40983;SDS011;26714;51.332;12.406;2023-08-17T07:35:24;6.25;;;4.18;;
40983;SDS011;26714;51.332;12.406;2023-08-17T07:37:50;6.13;;;3.88;;
40983;SDS011;26714;51.332;12.406;2023-08-17T07:40:16;9.13;;;4.80;;
40983;SDS011;26714;51.332;12.406;2023-08-17T07:42:41;7.63;;;4.50;;
40983;SDS011;26714;51.332;12.406;2023-08-17T07:45:07;8.52;;;4.35;;
40983;SDS011;26714;51.332;12.406;2023-08-17T07:47:36;8.20;;;4.30;;
40983;SDS011;26714;51.332;12.406;2023-08-17T07:50:04;11.93;;;4.95;;
40983;SDS011;26714;51.332;12.406;2023-08-17T07:52:30;7.55;;;4.15;;
40983;SDS011;26714;51.332;12.406;2023-08-17T07:54:55;7.72;;;4.70;;
40983;SDS011;26714;51.332;12.406;2023-08-17T07:57:21;6.82;;;3.80;;
40983;SDS011;26714;51.332;12.406;2023-08-17T07:59:47;9.27;;;4.88;;
40983;SDS011;26714;51.332;12.406;2023-08-17T08:02:12;8.90;;;4.85;;
40983;SDS011;26714;51.332;12.406;2023-08-17T08:04:38;10.75;;;4.28;;
40983;SDS011;26714;51.332;12.406;2023-08-17T08:07:03;10.13;;;4.72;;
40983;SDS011;26714;51.332;12.406;2023-08-17T08:09:29;7.75;;;4.90;;
40983;SDS011;26714;51.332;12.406;2023-08-17T08:11:54;9.02;;;4.75;;
40983;SDS011;26714;51.332;12.406;2023-08-17T08:14:23;7.03;;;4.93;;
40983;SDS011;26714;51.332;12.406;2023-08-17T08:16:49;9.00;;;5.13;;
40983;SDS011;26714;51.332;12.406;2023-08-17T08:19:14;8.55;;;5.28;;
40983;SDS011;26714;51.332;12.406;2023-08-17T08:21:40;7.30;;;4.70;;
40983;SDS011;26714;51.332;12.406;2023-08-17T08:24:05;9.13;;;5.25;;
40983;SDS011;26714;51.332;12.406;2023-08-17T08:26:31;10.60;;;5.82;;
40983;SDS011;26714;51.332;12.406;2023-08-17T08:28:56;8.75;;;5.07;;
40983;SDS011;26714;51.332;12.406;2023-08-17T08:31:22;11.35;;;6.32;;
40983;SDS011;26714;51.332;12.406;2023-08-17T08:33:47;11.85;;;5.65;;
40983;SDS011;26714;51.332;12.406;2023-08-17T08:36:13;9.75;;;5.40;;
40983;SDS011;26714;51.332;12.406;2023-08-17T08:38:38;9.85;;;6.25;;
40983;SDS011;26714;51.332;12.406;2023-08-17T08:41:04;10.27;;;6.60;;
40983;SDS011;26714;51.332;12.406;2023-08-17T08:43:30;10.27;;;6.10;;
40983;SDS011;26714;51.332;12.406;2023-08-17T08:45:56;8.77;;;6.00;;
40983;SDS011;26714;51.332;12.406;2023-08-17T08:48:23;9.00;;;4.93;;
40983;SDS011;26714;51.332;12.406;2023-08-17T08:50:58;17.38;;;8.15;;
40983;SDS011;26714;51.332;12.406;2023-08-17T08:53:28;10.00;;;5.78;;
40983;SDS011;26714;51.332;12.406;2023-08-17T08:55:57;11.55;;;5.47;;
40983;SDS011;26714;51.332;12.406;2023-08-17T08:58:23;12.73;;;6.57;;
40983;SDS011;26714;51.332;12.406;2023-08-17T09:00:52;9.68;;;5.82;;
40983;SDS011;26714;51.332;12.406;2023-08-17T09:03:19;13.20;;;5.65;;
40983;SDS011;26714;51.332;12.406;2023-08-17T09:05:48;8.98;;;5.50;;
40983;SDS011;26714;51.332;12.406;2023-08-17T09:08:14;9.85;;;6.10;;
40983;SDS011;26714;51.332;12.406;2023-08-17T09:10:41;11.10;;;5.25;;
40983;SDS011;26714;51.332;12.406;2023-08-17T09:13:09;10.98;;;6.03;;
40983;SDS011;26714;51.332;12.406;2023-08-17T09:15:35;9.95;;;5.55;;
40983;SDS011;26714;51.332;12.406;2023-08-17T09:18:01;8.07;;;5.63;;
40983;SDS011;26714;51.332;12.406;2023-08-17T09:20:39;8.52;;;6.20;;
40983;SDS011;26714;51.332;12.406;2023-08-17T09:23:12;8.73;;;5.45;;
40983;SDS011;26714;51.332;12.406;2023-08-17T09:25:42;10.70;;;6.38;;
40983;SDS011;26714;51.332;12.406;2023-08-17T09:28:08;9.80;;;6.07;;
40983;SDS011;26714;51.332;12.406;2023-08-17T09:30:56;10.48;;;5.47;;
40983;SDS011;26714;51.332;12.406;2023-08-17T09:33:21;12.55;;;5.60;;
40983;SDS011;26714;51.332;12.406;2023-08-17T09:35:48;12.05;;;5.60;;
40983;SDS011;26714;51.332;12.406;2023-08-17T09:38:13;8.65;;;5.72;;
40983;SDS011;26714;51.332;12.406;2023-08-17T09:40:39;10.90;;;5.55;;
40983;SDS011;26714;51.332;12.406;2023-08-17T09:43:05;7.38;;;5.60;;
40983;SDS011;26714;51.332;12.406;2023-08-17T09:45:30;10.32;;;6.28;;
40983;SDS011;26714;51.332;12.406;2023-08-17T09:47:58;10.07;;;5.47;;
40983;SDS011;26714;51.332;12.406;2023-08-17T09:50:24;11.25;;;5.53;;
40983;SDS011;26714;51.332;12.406;2023-08-17T09:52:54;10.60;;;5.55;;
40983;SDS011;26714;51.332;12.406;2023-08-17T09:55:22;12.63;;;7.38;;
40983;SDS011;26714;51.332;12.406;2023-08-17T09:57:49;9.07;;;5.93;;
40983;SDS011;26714;51.332;12.406;2023-08-17T10:00:16;12.27;;;6.28;;
40983;SDS011;26714;51.332;12.406;2023-08-17T10:02:42;11.85;;;6.95;;
40983;SDS011;26714;51.332;12.406;2023-08-17T10:05:09;11.95;;;5.78;;
40983;SDS011;26714;51.332;12.406;2023-08-17T10:07:36;8.40;;;5.85;;
40983;SDS011;26714;51.332;12.406;2023-08-17T10:10:04;11.20;;;6.57;;
40983;SDS011;26714;51.332;12.406;2023-08-17T10:12:36;9.52;;;6.10;;
40983;SDS011;26714;51.332;12.406;2023-08-17T10:15:03;10.57;;;6.15;;
40983;SDS011;26714;51.332;12.406;2023-08-17T10:17:50;16.83;;;6.82;;
40983;SDS011;26714;51.332;12.406;2023-08-17T10:20:23;10.13;;;5.95;;
40983;SDS011;26714;51.332;12.406;2023-08-17T10:22:52;9.00;;;5.30;;
40983;SDS011;26714;51.332;12.406;2023-08-17T10:25:23;9.60;;;5.65;;
40983;SDS011;26714;51.332;12.406;2023-08-17T10:27:51;11.90;;;6.00;;
40983;SDS011;26714;51.332;12.406;2023-08-17T10:30:20;13.38;;;6.40;;
40983;SDS011;26714;51.332;12.406;2023-08-17T10:32:46;9.55;;;6.18;;
40983;SDS011;26714;51.332;12.406;2023-08-17T10:35:17;10.10;;;5.75;;
40983;SDS011;26714;51.332;12.406;2023-08-17T10:37:43;9.60;;;5.40;;
40983;SDS011;26714;51.332;12.406;2023-08-17T10:40:12;9.02;;;5.50;;
40983;SDS011;26714;51.332;12.406;2023-08-17T10:42:38;8.02;;;5.05;;
40983;SDS011;26714;51.332;12.406;2023-08-17T10:47:49;9.15;;;5.82;;
40983;SDS011;26714;51.332;12.406;2023-08-17T10:50:24;14.38;;;5.18;;
40983;SDS011;26714;51.332;12.406;2023-08-17T10:52:52;9.70;;;4.90;;
40983;SDS011;26714;51.332;12.406;2023-08-17T10:55:35;9.20;;;5.70;;
40983;SDS011;26714;51.332;12.406;2023-08-17T10:58:01;10.38;;;5.80;;
40983;SDS011;26714;51.332;12.406;2023-08-17T11:00:27;11.27;;;5.43;;
40983;SDS011;26714;51.332;12.406;2023-08-17T11:03:03;15.32;;;6.20;;
40983;SDS011;26714;51.332;12.406;2023-08-17T11:05:37;9.23;;;4.70;;
40983;SDS011;26714;51.332;12.406;2023-08-17T11:08:04;8.68;;;5.18;;
40983;SDS011;26714;51.332;12.406;2023-08-17T11:10:30;9.55;;;5.00;;
40983;SDS011;26714;51.332;12.406;2023-08-17T11:12:56;12.98;;;4.68;;
40983;SDS011;26714;51.332;12.406;2023-08-17T11:15:36;7.65;;;4.25;;
40983;SDS011;26714;51.332;12.406;2023-08-17T11:18:07;10.63;;;5.10;;
40983;SDS011;26714;51.332;12.406;2023-08-17T11:20:34;10.80;;;5.10;;
40983;SDS011;26714;51.332;12.406;2023-08-17T11:23:00;11.00;;;4.60;;
40983;SDS011;26714;51.332;12.406;2023-08-17T11:25:28;11.32;;;4.97;;
40983;SDS011;26714;51.332;12.406;2023-08-17T11:27:57;9.75;;;5.22;;
40983;SDS011;26714;51.332;12.406;2023-08-17T11:30:27;14.60;;;9.38;;
40983;SDS011;26714;51.332;12.406;2023-08-17T11:32:54;9.85;;;5.10;;
40983;SDS011;26714;51.332;12.406;2023-08-17T11:35:22;13.38;;;5.47;;
40983;SDS011;26714;51.332;12.406;2023-08-17T11:37:48;7.60;;;5.22;;
40983;SDS011;26714;51.332;12.406;2023-08-17T11:40:14;9.38;;;4.43;;
40983;SDS011;26714;51.332;12.406;2023-08-17T11:42:40;9.82;;;4.45;;
40983;SDS011;26714;51.332;12.406;2023-08-17T11:45:07;6.63;;;4.20;;
40983;SDS011;26714;51.332;12.406;2023-08-17T11:47:38;6.43;;;4.28;;
40983;SDS011;26714;51.332;12.406;2023-08-17T11:50:06;7.10;;;4.43;;
40983;SDS011;26714;51.332;12.406;2023-08-17T11:52:32;6.70;;;4.43;;
40983;SDS011;26714;51.332;12.406;2023-08-17T11:55:07;8.52;;;4.28;;
40983;SDS011;26714;51.332;12.406;2023-08-17T11:57:35;7.78;;;4.45;;
40983;SDS011;26714;51.332;12.406;2023-08-17T12:00:01;11.15;;;4.25;;
40983;SDS011;26714;51.332;12.406;2023-08-17T12:02:30;7.50;;;4.28;;
40983;SDS011;26714;51.332;12.406;2023-08-17T12:04:56;6.28;;;4.25;;
40983;SDS011;26714;51.332;12.406;2023-08-17T12:07:25;5.70;;;4.30;;
40983;SDS011;26714;51.332;12.406;2023-08-17T12:09:51;10.60;;;6.00;;
40983;SDS011;26714;51.332;12.406;2023-08-17T12:12:19;6.32;;;5.35;;
40983;SDS011;26714;51.332;12.406;2023-08-17T12:14:50;6.15;;;4.78;;
40983;SDS011;26714;51.332;12.406;2023-08-17T12:17:18;8.73;;;5.40;;
40983;SDS011;26714;51.332;12.406;2023-08-17T12:19:44;6.15;;;4.78;;
40983;SDS011;26714;51.332;12.406;2023-08-17T12:22:11;6.70;;;4.80;;
40983;SDS011;26714;51.332;12.406;2023-08-17T12:27:04;6.90;;;4.63;;
40983;SDS011;26714;51.332;12.406;2023-08-17T12:29:30;7.53;;;4.80;;
40983;SDS011;26714;51.332;12.406;2023-08-17T12:31:58;6.07;;;3.67;;
40983;SDS011;26714;51.332;12.406;2023-08-17T12:34:25;9.13;;;4.10;;
40983;SDS011;26714;51.332;12.406;2023-08-17T12:36:51;6.50;;;4.47;;
40983;SDS011;26714;51.332;12.406;2023-08-17T12:39:17;10.32;;;4.68;;
40983;SDS011;26714;51.332;12.406;2023-08-17T12:41:43;9.75;;;4.30;;
40983;SDS011;26714;51.332;12.406;2023-08-17T12:44:09;7.97;;;4.57;;
40983;SDS011;26714;51.332;12.406;2023-08-17T12:46:42;7.60;;;4.20;;
40983;SDS011;26714;51.332;12.406;2023-08-17T12:49:07;8.20;;;4.28;;
40983;SDS011;26714;51.332;12.406;2023-08-17T12:51:33;5.85;;;4.43;;
40983;SDS011;26714;51.332;12.406;2023-08-17T12:53:59;7.63;;;4.65;;
40983;SDS011;26714;51.332;12.406;2023-08-17T12:56:25;6.82;;;4.63;;
40983;SDS011;26714;51.332;12.406;2023-08-17T12:58:51;6.60;;;3.88;;
40983;SDS011;26714;51.332;12.406;2023-08-17T13:01:17;10.00;;;4.88;;
40983;SDS011;26714;51.332;12.406;2023-08-17T13:03:44;8.02;;;5.00;;
40983;SDS011;26714;51.332;12.406;2023-08-17T13:06:09;7.57;;;4.18;;
40983;SDS011;26714;51.332;12.406;2023-08-17T13:08:38;10.63;;;4.57;;
40983;SDS011;26714;51.332;12.406;2023-08-17T13:11:04;10.55;;;7.60;;
40983;SDS011;26714;51.332;12.406;2023-08-17T13:13:29;11.30;;;4.80;;
40983;SDS011;26714;51.332;12.406;2023-08-17T13:15:55;6.00;;;4.28;;
40983;SDS011;26714;51.332;12.406;2023-08-17T13:18:21;7.38;;;4.57;;
40983;SDS011;26714;51.332;12.406;2023-08-17T13:20:46;6.53;;;5.07;;
40983;SDS011;26714;51.332;12.406;2023-08-17T13:23:12;6.68;;;4.38;;
40983;SDS011;26714;51.332;12.406;2023-08-17T13:25:38;6.82;;;4.75;;
40983;SDS011;26714;51.332;12.406;2023-08-17T13:28:04;7.80;;;4.20;;
40983;SDS011;26714;51.332;12.406;2023-08-17T13:30:30;5.90;;;4.45;;
40983;SDS011;26714;51.332;12.406;2023-08-17T13:32:56;6.63;;;4.10;;
40983;SDS011;26714;51.332;12.406;2023-08-17T13:35:24;5.43;;;4.45;;
40983;SDS011;26714;51.332;12.406;2023-08-17T13:37:53;7.30;;;4.35;;
40983;SDS011;26714;51.332;12.406;2023-08-17T13:40:19;6.28;;;4.30;;
40983;SDS011;26714;51.332;12.406;2023-08-17T13:42:47;7.22;;;4.78;;
40983;SDS011;26714;51.332;12.406;2023-08-17T13:45:15;10.95;;;5.32;;
40983;SDS011;26714;51.332;12.406;2023-08-17T13:47:41;6.90;;;4.65;;
40983;SDS011;26714;51.332;12.406;2023-08-17T13:50:07;8.85;;;4.68;;
40983;SDS011;26714;51.332;12.406;2023-08-17T13:52:35;9.88;;;4.40;;
40983;SDS011;26714;51.332;12.406;2023-08-17T13:55:01;7.97;;;4.80;;
40983;SDS011;26714;51.332;12.406;2023-08-17T13:57:27;7.45;;;5.00;;
40983;SDS011;26714;51.332;12.406;2023-08-17T13:59:53;9.40;;;5.20;;
40983;SDS011;26714;51.332;12.406;2023-08-17T14:02:19;8.27;;;5.63;;
40983;SDS011;26714;51.332;12.406;2023-08-17T14:04:45;6.80;;;4.82;;
40983;SDS011;26714;51.332;12.406;2023-08-17T14:07:11;9.50;;;5.13;;
40983;SDS011;26714;51.332;12.406;2023-08-17T14:09:36;6.45;;;5.20;;
40983;SDS011;26714;51.332;12.406;2023-08-17T14:12:02;7.47;;;5.15;;
40983;SDS011;26714;51.332;12.406;2023-08-17T14:14:30;7.55;;;5.25;;
40983;SDS011;26714;51.332;12.406;2023-08-17T14:16:56;6.25;;;4.82;;
40983;SDS011;26714;51.332;12.406;2023-08-17T14:19:25;8.93;;;5.43;;
40983;SDS011;26714;51.332;12.406;2023-08-17T14:21:51;6.95;;;5.28;;
40983;SDS011;26714;51.332;12.406;2023-08-17T14:24:17;8.55;;;5.47;;
40983;SDS011;26714;51.332;12.406;2023-08-17T14:26:46;8.23;;;5.47;;
40983;SDS011;26714;51.332;12.406;2023-08-17T14:29:12;7.88;;;5.43;;
40983;SDS011;26714;51.332;12.406;2023-08-17T14:31:38;11.25;;;5.63;;
40983;SDS011;26714;51.332;12.406;2023-08-17T14:34:07;10.80;;;5.63;;
40983;SDS011;26714;51.332;12.406;2023-08-17T14:36:33;7.60;;;5.60;;
40983;SDS011;26714;51.332;12.406;2023-08-17T14:38:58;11.00;;;5.97;;
40983;SDS011;26714;51.332;12.406;2023-08-17T14:41:24;9.80;;;6.10;;